sensor_id;sensor_type;location;lat;lon;timestamp;pressure;altitude;pressure_sealevel;temperature;humidity
62438;BME280;48481;0.000;0.000;2023-05-02T00:00:07;101179.03;;;11.04;70.96
62438;BME280;48481;0.000;0.000;2023-05-02T00:02:33;101176.50;;;10.94;71.41
62438;BME280;48481;0.000;0.000;2023-05-02T00:04:58;101182.16;;;10.99;71.98
62438;BME280;48481;0.000;0.000;2023-05-02T00:07:24;101176.59;;;11.10;71.51
62438;BME280;48481;0.000;0.000;2023-05-02T00:09:50;101178.50;;;11.00;72.22
62438;BME280;48481;0.000;0.000;2023-05-02T00:12:16;101172.44;;;11.08;71.99
62438;BME280;48481;0.000;0.000;2023-05-02T00:14:41;101177.13;;;11.22;71.92
62438;BME280;48481;0.000;0.000;2023-05-02T00:17:06;101178.50;;;11.00;72.83
62438;BME280;48481;0.000;0.000;2023-05-02T00:19:37;101176.53;;;11.02;72.88
62438;BME280;48481;0.000;0.000;2023-05-02T00:22:02;101184.47;;;11.02;72.70
62438;BME280;48481;0.000;0.000;2023-05-02T00:24:27;101177.53;;;11.01;72.90
62438;BME280;48481;0.000;0.000;2023-05-02T00:26:53;101177.97;;;10.89;73.68
62438;BME280;48481;0.000;0.000;2023-05-02T00:29:18;101180.28;;;10.92;73.91
62438;BME280;48481;0.000;0.000;2023-05-02T00:31:43;101176.38;;;11.04;73.97
62438;BME280;48481;0.000;0.000;2023-05-02T00:34:09;101182.16;;;10.99;73.77
62438;BME280;48481;0.000;0.000;2023-05-02T00:36:34;101173.84;;;10.94;74.40
62438;BME280;48481;0.000;0.000;2023-05-02T00:38:59;101176.50;;;10.94;74.64
62438;BME280;48481;0.000;0.000;2023-05-02T00:41:25;101181.91;;;10.85;75.17
62438;BME280;48481;0.000;0.000;2023-05-02T00:43:50;101189.34;;;10.81;75.71
62438;BME280;48481;0.000;0.000;2023-05-02T00:46:15;101184.69;;;10.75;75.95
62438;BME280;48481;0.000;0.000;2023-05-02T00:48:41;101186.50;;;10.74;76.10
62438;BME280;48481;0.000;0.000;2023-05-02T00:51:06;101179.78;;;10.88;75.62
62438;BME280;48481;0.000;0.000;2023-05-02T00:53:34;101175.94;;;10.83;75.86
62438;BME280;48481;0.000;0.000;2023-05-02T00:56:00;101180.81;;;10.95;75.23
62438;BME280;48481;0.000;0.000;2023-05-02T00:58:26;101176.16;;;10.89;75.68
62438;BME280;48481;0.000;0.000;2023-05-02T01:09:19;101179.19;;;11.02;75.14
62438;BME280;48481;0.000;0.000;2023-05-02T01:12:00;101174.69;;;10.95;75.39
62438;BME280;48481;0.000;0.000;2023-05-02T01:14:51;101170.84;;;10.89;75.97
62438;BME280;48481;0.000;0.000;2023-05-02T01:17:15;101179.63;;;10.90;76.13
62438;BME280;48481;0.000;0.000;2023-05-02T01:19:46;101179.97;;;10.95;75.97
62438;BME280;48481;0.000;0.000;2023-05-02T01:22:14;101178.75;;;10.81;77.22
62438;BME280;48481;0.000;0.000;2023-05-02T01:27:36;101184.38;;;10.78;78.92
62438;BME280;48481;0.000;0.000;2023-05-02T01:30:06;101177.50;;;10.93;78.79
62438;BME280;48481;0.000;0.000;2023-05-02T01:32:33;101186.47;;;10.66;79.92
62438;BME280;48481;0.000;0.000;2023-05-02T01:35:01;101181.09;;;10.84;79.46
62438;BME280;48481;0.000;0.000;2023-05-02T01:37:29;101190.97;;;10.74;79.77
62438;BME280;48481;0.000;0.000;2023-05-02T01:39:56;101178.78;;;10.55;80.34
62438;BME280;48481;0.000;0.000;2023-05-02T01:42:24;101185.44;;;10.59;80.36
62438;BME280;48481;0.000;0.000;2023-05-02T01:44:53;101197.34;;;10.63;80.29
62438;BME280;48481;0.000;0.000;2023-05-02T01:47:21;101188.66;;;10.45;80.90
62438;BME280;48481;0.000;0.000;2023-05-02T01:49:47;101197.59;;;10.26;81.38
62438;BME280;48481;0.000;0.000;2023-05-02T01:52:13;101191.94;;;10.21;82.10
62438;BME280;48481;0.000;0.000;2023-05-02T01:54:39;101201.13;;;10.17;82.29
62438;BME280;48481;0.000;0.000;2023-05-02T01:57:07;101196.34;;;10.38;82.02
62438;BME280;48481;0.000;0.000;2023-05-02T01:59:34;101201.06;;;10.44;81.87
62438;BME280;48481;0.000;0.000;2023-05-02T02:02:01;101199.81;;;10.39;82.02
62438;BME280;48481;0.000;0.000;2023-05-02T02:04:28;101202.19;;;10.68;80.98
62438;BME280;48481;0.000;0.000;2023-05-02T02:07:02;101201.72;;;10.46;81.68
62438;BME280;48481;0.000;0.000;2023-05-02T02:09:29;101206.03;;;10.47;81.68
62438;BME280;48481;0.000;0.000;2023-05-02T02:14:33;101206.03;;;10.47;81.53
62438;BME280;48481;0.000;0.000;2023-05-02T02:17:00;101205.94;;;10.39;82.01
62438;BME280;48481;0.000;0.000;2023-05-02T02:19:28;101211.13;;;10.23;82.64
62438;BME280;48481;0.000;0.000;2023-05-02T02:21:56;101216.72;;;10.20;82.90
62438;BME280;48481;0.000;0.000;2023-05-02T02:24:22;101215.03;;;10.19;82.25
62438;BME280;48481;0.000;0.000;2023-05-02T02:26:48;101231.97;;;10.08;82.13
62438;BME280;48481;0.000;0.000;2023-05-02T02:29:15;101222.53;;;10.06;82.28
62438;BME280;48481;0.000;0.000;2023-05-02T02:31:40;101228.41;;;10.17;81.55
62438;BME280;48481;0.000;0.000;2023-05-02T02:34:06;101236.72;;;10.05;81.77
62438;BME280;48481;0.000;0.000;2023-05-02T02:39:38;101235.22;;;10.20;81.22
62438;BME280;48481;0.000;0.000;2023-05-02T02:42:31;101255.16;;;9.97;81.84
62438;BME280;48481;0.000;0.000;2023-05-02T02:47:58;101270.75;;;9.72;81.75
62438;BME280;48481;0.000;0.000;2023-05-02T02:50:32;101272.00;;;9.50;82.33
62438;BME280;48481;0.000;0.000;2023-05-02T02:53:04;101276.53;;;9.58;81.13
62438;BME280;48481;0.000;0.000;2023-05-02T02:58:17;101296.94;;;9.38;79.96
62438;BME280;48481;0.000;0.000;2023-05-02T03:00:45;101294.91;;;9.23;79.33
62438;BME280;48481;0.000;0.000;2023-05-02T03:03:13;101302.31;;;9.19;79.03
62438;BME280;48481;0.000;0.000;2023-05-02T03:05:39;101307.72;;;9.17;78.02
62438;BME280;48481;0.000;0.000;2023-05-02T03:08:06;101323.00;;;9.24;77.43
62438;BME280;48481;0.000;0.000;2023-05-02T03:10:31;101341.09;;;9.18;76.76
62438;BME280;48481;0.000;0.000;2023-05-02T03:12:57;101340.13;;;9.00;75.75
62438;BME280;48481;0.000;0.000;2023-05-02T03:18:23;101356.16;;;8.50;75.97
62438;BME280;48481;0.000;0.000;2023-05-02T03:20:48;101353.66;;;8.58;75.57
62438;BME280;48481;0.000;0.000;2023-05-02T03:23:14;101354.22;;;8.52;74.53
62438;BME280;48481;0.000;0.000;2023-05-02T03:25:39;101357.00;;;8.51;74.28
62438;BME280;48481;0.000;0.000;2023-05-02T03:28:04;101367.50;;;8.41;74.40
62438;BME280;48481;0.000;0.000;2023-05-02T03:30:30;101381.94;;;8.37;74.68
62438;BME280;48481;0.000;0.000;2023-05-02T03:32:55;101368.03;;;8.25;75.36
62438;BME280;48481;0.000;0.000;2023-05-02T03:35:21;101381.59;;;8.02;76.50
62438;BME280;48481;0.000;0.000;2023-05-02T03:37:46;101371.88;;;8.02;76.85
62438;BME280;48481;0.000;0.000;2023-05-02T03:40:11;101379.34;;;7.97;77.18
62438;BME280;48481;0.000;0.000;2023-05-02T03:42:37;101389.91;;;8.07;77.11
62438;BME280;48481;0.000;0.000;2023-05-02T03:45:08;101395.28;;;7.86;77.88
62438;BME280;48481;0.000;0.000;2023-05-02T03:47:34;101410.38;;;7.84;78.06
62438;BME280;48481;0.000;0.000;2023-05-02T03:49:59;101411.91;;;7.86;76.79
62438;BME280;48481;0.000;0.000;2023-05-02T03:52:26;101401.97;;;7.69;78.04
62438;BME280;48481;0.000;0.000;2023-05-02T03:54:51;101412.25;;;7.72;77.04
62438;BME280;48481;0.000;0.000;2023-05-02T03:57:17;101416.53;;;8.04;76.13
62438;BME280;48481;0.000;0.000;2023-05-02T03:59:43;101430.69;;;7.42;76.96
62438;BME280;48481;0.000;0.000;2023-05-02T04:02:10;101424.09;;;7.57;76.46
62438;BME280;48481;0.000;0.000;2023-05-02T04:04:36;101428.06;;;7.72;75.88
62438;BME280;48481;0.000;0.000;2023-05-02T04:07:02;101428.88;;;7.73;75.41
62438;BME280;48481;0.000;0.000;2023-05-02T04:09:28;101441.44;;;7.59;75.44
62438;BME280;48481;0.000;0.000;2023-05-02T04:11:53;101439.91;;;7.57;73.16
62438;BME280;48481;0.000;0.000;2023-05-02T04:14:18;101455.31;;;7.82;70.60
62438;BME280;48481;0.000;0.000;2023-05-02T04:16:50;101463.28;;;7.71;70.51
62438;BME280;48481;0.000;0.000;2023-05-02T04:19:17;101456.50;;;7.78;70.35
62438;BME280;48481;0.000;0.000;2023-05-02T04:21:43;101460.94;;;7.47;70.09
62438;BME280;48481;0.000;0.000;2023-05-02T04:24:09;101465.19;;;7.69;69.88
62438;BME280;48481;0.000;0.000;2023-05-02T04:26:35;101475.22;;;7.75;68.89
62438;BME280;48481;0.000;0.000;2023-05-02T04:29:00;101479.72;;;7.63;68.54
62438;BME280;48481;0.000;0.000;2023-05-02T04:31:26;101487.25;;;7.47;68.47
62438;BME280;48481;0.000;0.000;2023-05-02T04:33:51;101492.13;;;7.52;68.32
62438;BME280;48481;0.000;0.000;2023-05-02T04:36:17;101499.22;;;7.51;68.26
62438;BME280;48481;0.000;0.000;2023-05-02T04:38:43;101498.78;;;7.77;66.85
62438;BME280;48481;0.000;0.000;2023-05-02T04:41:09;101500.69;;;7.65;67.02
62438;BME280;48481;0.000;0.000;2023-05-02T04:43:34;101504.28;;;7.64;66.23
62438;BME280;48481;0.000;0.000;2023-05-02T04:46:00;101502.41;;;7.55;66.31
62438;BME280;48481;0.000;0.000;2023-05-02T04:48:25;101516.63;;;7.43;66.75
62438;BME280;48481;0.000;0.000;2023-05-02T04:50:51;101519.63;;;7.59;66.10
62438;BME280;48481;0.000;0.000;2023-05-02T04:53:18;101520.06;;;7.64;65.93
62438;BME280;48481;0.000;0.000;2023-05-02T04:55:44;101532.41;;;7.63;66.01
62438;BME280;48481;0.000;0.000;2023-05-02T04:58:09;101533.06;;;7.56;66.28
62438;BME280;48481;0.000;0.000;2023-05-02T05:00:35;101535.19;;;7.62;66.03
62438;BME280;48481;0.000;0.000;2023-05-02T05:03:00;101549.50;;;7.69;66.73
62438;BME280;48481;0.000;0.000;2023-05-02T05:05:25;101547.97;;;7.46;66.47
62438;BME280;48481;0.000;0.000;2023-05-02T05:07:51;101549.88;;;7.44;66.66
62438;BME280;48481;0.000;0.000;2023-05-02T05:10:16;101553.03;;;7.58;65.63
62438;BME280;48481;0.000;0.000;2023-05-02T05:12:42;101557.22;;;7.61;65.28
62438;BME280;48481;0.000;0.000;2023-05-02T05:15:07;101568.78;;;7.49;65.78
62438;BME280;48481;0.000;0.000;2023-05-02T05:17:33;101566.13;;;7.49;65.76
62438;BME280;48481;0.000;0.000;2023-05-02T05:19:59;101574.28;;;7.46;65.76
62438;BME280;48481;0.000;0.000;2023-05-02T05:22:24;101575.72;;;7.50;65.34
62438;BME280;48481;0.000;0.000;2023-05-02T05:24:53;101574.81;;;7.40;65.55
62438;BME280;48481;0.000;0.000;2023-05-02T05:27:19;101582.50;;;7.31;66.23
62438;BME280;48481;0.000;0.000;2023-05-02T05:29:45;101583.66;;;7.39;65.26
62438;BME280;48481;0.000;0.000;2023-05-02T05:32:11;101581.56;;;7.53;65.05
62438;BME280;48481;0.000;0.000;2023-05-02T05:34:36;101588.16;;;7.48;64.58
62438;BME280;48481;0.000;0.000;2023-05-02T05:37:02;101598.84;;;7.46;64.16
62438;BME280;48481;0.000;0.000;2023-05-02T05:39:27;101596.44;;;7.43;64.54
62438;BME280;48481;0.000;0.000;2023-05-02T05:41:53;101609.50;;;7.45;64.33
62438;BME280;48481;0.000;0.000;2023-05-02T05:44:19;101608.69;;;7.33;64.39
62438;BME280;48481;0.000;0.000;2023-05-02T05:46:46;101614.75;;;7.45;63.38
62438;BME280;48481;0.000;0.000;2023-05-02T05:49:12;101621.06;;;7.53;63.51
62438;BME280;48481;0.000;0.000;2023-05-02T05:51:37;101623.19;;;7.27;63.89
62438;BME280;48481;0.000;0.000;2023-05-02T05:54:02;101624.41;;;7.23;64.06
62438;BME280;48481;0.000;0.000;2023-05-02T05:56:28;101626.91;;;7.25;63.81
62438;BME280;48481;0.000;0.000;2023-05-02T05:58:53;101632.47;;;7.43;63.56
62438;BME280;48481;0.000;0.000;2023-05-02T06:01:19;101631.28;;;7.47;63.65
62438;BME280;48481;0.000;0.000;2023-05-02T06:03:44;101639.69;;;7.41;63.71
62438;BME280;48481;0.000;0.000;2023-05-02T06:06:10;101645.06;;;7.39;62.80
62438;BME280;48481;0.000;0.000;2023-05-02T06:08:35;101645.09;;;7.28;61.16
62438;BME280;48481;0.000;0.000;2023-05-02T06:11:00;101661.06;;;7.47;60.64
62438;BME280;48481;0.000;0.000;2023-05-02T06:13:26;101658.03;;;7.20;61.01
62438;BME280;48481;0.000;0.000;2023-05-02T06:15:51;101663.16;;;7.32;59.72
62438;BME280;48481;0.000;0.000;2023-05-02T06:18:17;101666.88;;;7.30;60.07
62438;BME280;48481;0.000;0.000;2023-05-02T06:20:42;101661.88;;;7.59;59.01
62438;BME280;48481;0.000;0.000;2023-05-02T06:23:07;101662.91;;;7.68;58.56
62438;BME280;48481;0.000;0.000;2023-05-02T06:25:36;101666.50;;;7.67;58.58
62438;BME280;48481;0.000;0.000;2023-05-02T06:28:01;101669.34;;;7.75;57.63
62438;BME280;48481;0.000;0.000;2023-05-02T06:30:27;101670.16;;;7.86;57.33
62438;BME280;48481;0.000;0.000;2023-05-02T06:32:52;101679.34;;;7.60;58.14
62438;BME280;48481;0.000;0.000;2023-05-02T06:35:17;101677.72;;;7.48;58.41
62438;BME280;48481;0.000;0.000;2023-05-02T06:37:43;101677.47;;;7.51;57.79
62438;BME280;48481;0.000;0.000;2023-05-02T06:40:09;101697.72;;;7.39;58.63
62438;BME280;48481;0.000;0.000;2023-05-02T06:42:34;101697.06;;;7.58;58.20
62438;BME280;48481;0.000;0.000;2023-05-02T06:44:59;101711.44;;;7.65;57.86
62438;BME280;48481;0.000;0.000;2023-05-02T06:47:25;101713.59;;;7.60;57.06
62438;BME280;48481;0.000;0.000;2023-05-02T06:49:51;101712.31;;;7.43;57.08
62438;BME280;48481;0.000;0.000;2023-05-02T06:52:17;101724.19;;;7.38;57.38
62438;BME280;48481;0.000;0.000;2023-05-02T06:54:42;101715.28;;;7.61;56.93
62438;BME280;48481;0.000;0.000;2023-05-02T06:57:08;101734.06;;;7.68;55.88
62438;BME280;48481;0.000;0.000;2023-05-02T06:59:35;101735.63;;;7.59;55.94
62438;BME280;48481;0.000;0.000;2023-05-02T07:02:00;101740.69;;;7.51;55.74
62438;BME280;48481;0.000;0.000;2023-05-02T07:04:26;101742.94;;;7.55;55.78
62438;BME280;48481;0.000;0.000;2023-05-02T07:06:51;101745.69;;;7.65;54.36
62438;BME280;48481;0.000;0.000;2023-05-02T07:09:17;101738.66;;;7.43;54.56
62438;BME280;48481;0.000;0.000;2023-05-02T07:11:42;101759.22;;;7.60;53.91
62438;BME280;48481;0.000;0.000;2023-05-02T07:14:08;101761.63;;;7.52;53.65
62438;BME280;48481;0.000;0.000;2023-05-02T07:16:33;101759.13;;;7.40;53.83
62438;BME280;48481;0.000;0.000;2023-05-02T07:18:58;101757.91;;;7.55;53.44
62438;BME280;48481;0.000;0.000;2023-05-02T07:21:25;101764.69;;;7.69;53.27
62438;BME280;48481;0.000;0.000;2023-05-02T07:23:51;101770.97;;;7.56;53.93
62438;BME280;48481;0.000;0.000;2023-05-02T07:26:16;101759.22;;;7.60;52.95
62438;BME280;48481;0.000;0.000;2023-05-02T07:28:43;101771.78;;;7.68;52.44
62438;BME280;48481;0.000;0.000;2023-05-02T07:31:08;101760.53;;;7.55;52.79
62438;BME280;48481;0.000;0.000;2023-05-02T07:33:33;101769.72;;;7.72;52.13
62438;BME280;48481;0.000;0.000;2023-05-02T07:36:00;101783.03;;;7.70;52.16
62438;BME280;48481;0.000;0.000;2023-05-02T07:38:26;101777.63;;;7.83;52.22
62438;BME280;48481;0.000;0.000;2023-05-02T07:40:52;101781.34;;;7.80;52.01
62438;BME280;48481;0.000;0.000;2023-05-02T07:43:17;101787.22;;;8.16;51.67
62438;BME280;48481;0.000;0.000;2023-05-02T07:45:42;101792.78;;;8.02;51.73
62438;BME280;48481;0.000;0.000;2023-05-02T07:48:08;101780.09;;;7.95;51.51
62438;BME280;48481;0.000;0.000;2023-05-02T07:50:33;101792.72;;;7.81;51.48
62438;BME280;48481;0.000;0.000;2023-05-02T07:52:59;101812.97;;;7.58;51.78
62438;BME280;48481;0.000;0.000;2023-05-02T07:55:24;101799.41;;;7.74;50.89
62438;BME280;48481;0.000;0.000;2023-05-02T07:57:54;101803.34;;;7.79;50.92
62438;BME280;48481;0.000;0.000;2023-05-02T08:00:20;101794.28;;;7.61;51.61
62438;BME280;48481;0.000;0.000;2023-05-02T08:02:45;101807.56;;;7.71;52.00
62438;BME280;48481;0.000;0.000;2023-05-02T08:05:11;101813.81;;;7.81;51.55
62438;BME280;48481;0.000;0.000;2023-05-02T08:07:36;101822.06;;;7.87;51.57
62438;BME280;48481;0.000;0.000;2023-05-02T08:10:02;101823.72;;;8.00;50.78
62438;BME280;48481;0.000;0.000;2023-05-02T08:12:27;101831.38;;;8.03;50.73
62438;BME280;48481;0.000;0.000;2023-05-02T08:14:53;101824.50;;;8.11;50.37
62438;BME280;48481;0.000;0.000;2023-05-02T08:17:18;101830.13;;;8.18;50.12
62438;BME280;48481;0.000;0.000;2023-05-02T08:19:43;101832.03;;;8.16;50.00
62438;BME280;48481;0.000;0.000;2023-05-02T08:22:09;101827.56;;;8.27;50.38
62438;BME280;48481;0.000;0.000;2023-05-02T08:24:34;101830.78;;;8.42;49.88
62438;BME280;48481;0.000;0.000;2023-05-02T08:27:00;101838.94;;;8.39;49.88
62438;BME280;48481;0.000;0.000;2023-05-02T08:29:27;101838.16;;;8.60;49.65
62438;BME280;48481;0.000;0.000;2023-05-02T08:31:52;101849.09;;;8.55;49.84
62438;BME280;48481;0.000;0.000;2023-05-02T08:34:18;101846.47;;;8.76;49.37
62438;BME280;48481;0.000;0.000;2023-05-02T08:36:43;101854.44;;;8.85;49.22
62438;BME280;48481;0.000;0.000;2023-05-02T08:39:09;101856.00;;;8.67;49.52
62438;BME280;48481;0.000;0.000;2023-05-02T08:41:34;101855.84;;;8.69;49.44
62438;BME280;48481;0.000;0.000;2023-05-02T08:44:01;101857.66;;;8.36;50.07
62438;BME280;48481;0.000;0.000;2023-05-02T08:46:27;101866.53;;;8.46;49.92
62438;BME280;48481;0.000;0.000;2023-05-02T08:48:54;101870.22;;;8.33;50.41
62438;BME280;48481;0.000;0.000;2023-05-02T08:51:23;101867.56;;;8.44;49.72
62438;BME280;48481;0.000;0.000;2023-05-02T08:53:49;101877.72;;;8.60;49.98
62438;BME280;48481;0.000;0.000;2023-05-02T08:56:16;101873.75;;;8.65;49.59
62438;BME280;48481;0.000;0.000;2023-05-02T08:58:41;101861.38;;;8.66;48.98
62438;BME280;48481;0.000;0.000;2023-05-02T09:01:15;101872.22;;;8.83;48.54
62438;BME280;48481;0.000;0.000;2023-05-02T09:03:45;101892.69;;;8.91;48.20
62438;BME280;48481;0.000;0.000;2023-05-02T09:06:16;101884.84;;;8.80;48.20
62438;BME280;48481;0.000;0.000;2023-05-02T09:08:44;101882.06;;;9.02;48.39
62438;BME280;48481;0.000;0.000;2023-05-02T09:11:11;101883.03;;;9.22;47.37
62438;BME280;48481;0.000;0.000;2023-05-02T09:13:41;101885.47;;;9.35;47.57
62438;BME280;48481;0.000;0.000;2023-05-02T09:16:11;101883.88;;;9.53;47.14
62438;BME280;48481;0.000;0.000;2023-05-02T09:18:41;101886.84;;;9.29;47.13
62438;BME280;48481;0.000;0.000;2023-05-02T09:21:12;101889.78;;;9.36;46.99
62438;BME280;48481;0.000;0.000;2023-05-02T09:23:42;101888.47;;;9.51;46.03
62438;BME280;48481;0.000;0.000;2023-05-02T09:31:10;101886.03;;;10.09;45.33
62438;BME280;48481;0.000;0.000;2023-05-02T09:33:37;101894.44;;;10.24;45.09
62438;BME280;48481;0.000;0.000;2023-05-02T09:36:04;101889.94;;;10.05;46.00
62438;BME280;48481;0.000;0.000;2023-05-02T09:38:31;101893.13;;;9.99;46.90
62438;BME280;48481;0.000;0.000;2023-05-02T09:40:57;101899.88;;;9.82;47.74
62438;BME280;48481;0.000;0.000;2023-05-02T09:43:23;101901.38;;;10.15;45.49
62438;BME280;48481;0.000;0.000;2023-05-02T09:45:59;101915.41;;;10.06;45.53
62438;BME280;48481;0.000;0.000;2023-05-02T09:48:26;101909.16;;;10.16;45.93
62438;BME280;48481;0.000;0.000;2023-05-02T09:50:52;101912.63;;;10.47;45.58
62438;BME280;48481;0.000;0.000;2023-05-02T09:53:17;101903.00;;;10.75;45.32
62438;BME280;48481;0.000;0.000;2023-05-02T09:55:42;101902.56;;;10.99;44.78
62438;BME280;48481;0.000;0.000;2023-05-02T09:58:19;101908.56;;;10.92;44.69
62438;BME280;48481;0.000;0.000;2023-05-02T10:00:46;101910.66;;;10.59;45.84
62438;BME280;48481;0.000;0.000;2023-05-02T10:03:15;101920.41;;;10.49;46.19
62438;BME280;48481;0.000;0.000;2023-05-02T10:05:42;101923.22;;;10.17;47.91
62438;BME280;48481;0.000;0.000;2023-05-02T10:08:08;101923.19;;;9.98;48.65
62438;BME280;48481;0.000;0.000;2023-05-02T10:10:46;101916.84;;;9.79;48.79
62438;BME280;48481;0.000;0.000;2023-05-02T10:13:15;101930.81;;;9.91;48.41
62438;BME280;48481;0.000;0.000;2023-05-02T10:15:44;101936.09;;;9.91;48.53
62438;BME280;48481;0.000;0.000;2023-05-02T10:18:15;101941.69;;;9.98;48.26
62438;BME280;48481;0.000;0.000;2023-05-02T10:21:07;101926.13;;;10.04;48.05
62438;BME280;48481;0.000;0.000;2023-05-02T10:23:33;101924.66;;;10.21;48.13
62438;BME280;48481;0.000;0.000;2023-05-02T10:25:59;101934.06;;;10.44;47.77
62438;BME280;48481;0.000;0.000;2023-05-02T10:28:29;101935.75;;;10.45;47.97
62438;BME280;48481;0.000;0.000;2023-05-02T10:30:54;101930.47;;;10.74;45.80
62438;BME280;48481;0.000;0.000;2023-05-02T10:33:21;101937.00;;;11.09;44.23
62438;BME280;48481;0.000;0.000;2023-05-02T10:35:47;101929.63;;;10.93;44.83
62438;BME280;48481;0.000;0.000;2023-05-02T10:38:19;101942.28;;;10.99;46.29
62438;BME280;48481;0.000;0.000;2023-05-02T10:40:50;101937.69;;;10.92;45.09
62438;BME280;48481;0.000;0.000;2023-05-02T10:43:21;101946.91;;;10.68;46.42
62438;BME280;48481;0.000;0.000;2023-05-02T10:45:47;101953.88;;;10.79;46.59
62438;BME280;48481;0.000;0.000;2023-05-02T10:48:16;101950.78;;;10.55;47.81
62438;BME280;48481;0.000;0.000;2023-05-02T10:53:25;101959.63;;;10.25;48.44
62438;BME280;48481;0.000;0.000;2023-05-02T10:58:44;101956.78;;;10.66;46.33
62438;BME280;48481;0.000;0.000;2023-05-02T11:04:08;101955.25;;;10.93;46.65
62438;BME280;48481;0.000;0.000;2023-05-02T11:11:48;101957.56;;;10.38;48.04
62438;BME280;48481;0.000;0.000;2023-05-02T11:19:27;101969.75;;;10.79;48.48
62438;BME280;48481;0.000;0.000;2023-05-02T11:24:44;101974.50;;;11.04;48.66
62438;BME280;48481;0.000;0.000;2023-05-02T11:29:56;101977.13;;;10.66;48.88
62438;BME280;48481;0.000;0.000;2023-05-02T11:32:22;101977.81;;;10.48;48.63
62438;BME280;48481;0.000;0.000;2023-05-02T11:34:48;101985.84;;;10.37;49.76
62438;BME280;48481;0.000;0.000;2023-05-02T11:37:18;101992.50;;;10.32;50.11
62438;BME280;48481;0.000;0.000;2023-05-02T11:39:44;101995.63;;;10.46;49.79
62438;BME280;48481;0.000;0.000;2023-05-02T11:42:32;101991.34;;;10.55;49.51
62438;BME280;48481;0.000;0.000;2023-05-02T11:44:59;101992.31;;;10.54;49.85
62438;BME280;48481;0.000;0.000;2023-05-02T11:47:25;101997.34;;;10.67;49.75
62438;BME280;48481;0.000;0.000;2023-05-02T11:49:57;102001.81;;;10.86;49.46
62438;BME280;48481;0.000;0.000;2023-05-02T11:52:23;102001.41;;;10.80;48.72
62438;BME280;48481;0.000;0.000;2023-05-02T11:54:53;102007.84;;;11.17;47.64
62438;BME280;48481;0.000;0.000;2023-05-02T11:57:19;102013.16;;;11.07;47.00
62438;BME280;48481;0.000;0.000;2023-05-02T12:02:14;102017.44;;;11.47;46.00
62438;BME280;48481;0.000;0.000;2023-05-02T12:04:43;102002.63;;;11.63;45.35
62438;BME280;48481;0.000;0.000;2023-05-02T12:07:09;102000.94;;;11.62;44.00
62438;BME280;48481;0.000;0.000;2023-05-02T12:09:34;102002.91;;;11.60;43.08
62438;BME280;48481;0.000;0.000;2023-05-02T12:11:59;102003.66;;;11.33;43.67
62438;BME280;48481;0.000;0.000;2023-05-02T12:14:29;101994.56;;;11.36;44.07
62438;BME280;48481;0.000;0.000;2023-05-02T12:16:58;102016.06;;;11.33;45.25
62438;BME280;48481;0.000;0.000;2023-05-02T12:19:24;102026.75;;;10.83;45.55
62438;BME280;48481;0.000;0.000;2023-05-02T12:21:50;102029.41;;;10.83;45.25
62438;BME280;48481;0.000;0.000;2023-05-02T12:24:16;102026.63;;;10.85;44.07
62438;BME280;48481;0.000;0.000;2023-05-02T12:26:42;102037.13;;;11.05;43.29
62438;BME280;48481;0.000;0.000;2023-05-02T12:29:07;102030.84;;;11.06;42.74
62438;BME280;48481;0.000;0.000;2023-05-02T12:31:33;102024.31;;;11.10;42.81
62438;BME280;48481;0.000;0.000;2023-05-02T12:33:58;102025.00;;;11.22;42.86
62438;BME280;48481;0.000;0.000;2023-05-02T12:36:26;102031.00;;;11.15;43.71
62438;BME280;48481;0.000;0.000;2023-05-02T12:38:56;102026.78;;;11.41;43.33
62438;BME280;48481;0.000;0.000;2023-05-02T12:41:34;102034.19;;;11.18;43.42
62438;BME280;48481;0.000;0.000;2023-05-02T12:44:01;102049.47;;;10.76;44.70
62438;BME280;48481;0.000;0.000;2023-05-02T12:46:26;102051.66;;;10.52;45.88
62438;BME280;48481;0.000;0.000;2023-05-02T12:49:08;102055.75;;;10.14;46.32
62438;BME280;48481;0.000;0.000;2023-05-02T12:51:34;102056.16;;;10.70;44.65
62438;BME280;48481;0.000;0.000;2023-05-02T12:54:01;102061.88;;;10.75;43.77
62438;BME280;48481;0.000;0.000;2023-05-02T12:56:26;102059.78;;;10.39;44.82
62438;BME280;48481;0.000;0.000;2023-05-02T12:58:56;102060.34;;;10.73;44.96
62438;BME280;48481;0.000;0.000;2023-05-02T13:01:25;102046.81;;;10.76;44.89
62438;BME280;48481;0.000;0.000;2023-05-02T13:03:50;102062.56;;;10.68;44.38
62438;BME280;48481;0.000;0.000;2023-05-02T13:06:15;102066.19;;;10.67;44.65
62438;BME280;48481;0.000;0.000;2023-05-02T13:08:41;102076.06;;;10.65;45.21
62438;BME280;48481;0.000;0.000;2023-05-02T13:11:06;102073.03;;;10.79;45.29
62438;BME280;48481;0.000;0.000;2023-05-02T13:13:32;102075.88;;;10.47;46.50
62438;BME280;48481;0.000;0.000;2023-05-02T13:15:59;102069.03;;;10.44;47.07
62438;BME280;48481;0.000;0.000;2023-05-02T13:18:24;102074.19;;;10.46;47.75
62438;BME280;48481;0.000;0.000;2023-05-02T13:20:50;102083.38;;;10.42;47.79
62438;BME280;48481;0.000;0.000;2023-05-02T13:23:15;102084.84;;;10.14;48.84
62438;BME280;48481;0.000;0.000;2023-05-02T13:25:41;102093.34;;;9.87;49.57
62438;BME280;48481;0.000;0.000;2023-05-02T13:28:06;102089.84;;;9.87;49.93
62438;BME280;48481;0.000;0.000;2023-05-02T13:30:31;102088.72;;;10.31;49.16
62438;BME280;48481;0.000;0.000;2023-05-02T13:32:57;102093.19;;;10.61;48.31
62438;BME280;48481;0.000;0.000;2023-05-02T13:35:23;102085.66;;;10.56;48.54
62438;BME280;48481;0.000;0.000;2023-05-02T13:37:50;102092.84;;;10.44;48.22
62438;BME280;48481;0.000;0.000;2023-05-02T13:40:15;102100.72;;;10.14;48.94
62438;BME280;48481;0.000;0.000;2023-05-02T13:42:40;102104.78;;;10.18;49.37
62438;BME280;48481;0.000;0.000;2023-05-02T13:45:06;102099.13;;;10.23;49.32
62438;BME280;48481;0.000;0.000;2023-05-02T13:47:32;102106.94;;;10.24;48.69
62438;BME280;48481;0.000;0.000;2023-05-02T13:49:57;102105.44;;;10.10;49.01
62438;BME280;48481;0.000;0.000;2023-05-02T13:52:23;102108.34;;;10.28;48.85
62438;BME280;48481;0.000;0.000;2023-05-02T13:54:48;102105.13;;;10.04;49.55
62438;BME280;48481;0.000;0.000;2023-05-02T13:57:14;102106.19;;;9.92;50.19
62438;BME280;48481;0.000;0.000;2023-05-02T13:59:39;102098.09;;;9.93;50.27